sensor_id;sensor_type;location;lat;lon;timestamp;pressure;altitude;pressure_sealevel;temperature;humidity
60244;BME280;46106;51.468;5.814;2023-04-27T00:01:10;101744.25;;;4.93;100.00
60244;BME280;46106;51.468;5.814;2023-04-27T00:03:40;101743.63;;;4.87;100.00
60244;BME280;46106;51.468;5.814;2023-04-27T00:06:07;101739.84;;;4.91;100.00
60244;BME280;46106;51.468;5.814;2023-04-27T00:08:33;101742.50;;;4.92;100.00
60244;BME280;46106;51.468;5.814;2023-04-27T00:10:59;101738.75;;;4.95;100.00
60244;BME280;46106;51.468;5.814;2023-04-27T00:13:24;101737.56;;;4.80;100.00
60244;BME280;46106;51.468;5.814;2023-04-27T00:15:51;101737.19;;;4.89;100.00
60244;BME280;46106;51.468;5.814;2023-04-27T00:18:17;101734.59;;;4.86;100.00
60244;BME280;46106;51.468;5.814;2023-04-27T00:20:42;101734.16;;;4.75;100.00
60244;BME280;46106;51.468;5.814;2023-04-27T00:23:08;101735.75;;;4.81;100.00
60244;BME280;46106;51.468;5.814;2023-04-27T00:25:34;101725.50;;;4.65;100.00
60244;BME280;46106;51.468;5.814;2023-04-27T00:27:59;101728.78;;;4.51;100.00
60244;BME280;46106;51.468;5.814;2023-04-27T00:30:25;101735.03;;;4.53;100.00
60244;BME280;46106;51.468;5.814;2023-04-27T00:32:50;101741.25;;;4.55;100.00
60244;BME280;46106;51.468;5.814;2023-04-27T00:35:16;101725.22;;;4.27;100.00
60244;BME280;46106;51.468;5.814;2023-04-27T00:37:41;101730.50;;;4.30;100.00
60244;BME280;46106;51.468;5.814;2023-04-27T00:40:10;101727.38;;;4.41;100.00
60244;BME280;46106;51.468;5.814;2023-04-27T00:42:36;101725.72;;;4.37;100.00
60244;BME280;46106;51.468;5.814;2023-04-27T00:45:01;101736.56;;;4.37;100.00
60244;BME280;46106;51.468;5.814;2023-04-27T00:47:29;101732.19;;;4.33;100.00
60244;BME280;46106;51.468;5.814;2023-04-27T00:49:55;101733.28;;;4.29;100.00
60244;BME280;46106;51.468;5.814;2023-04-27T00:52:20;101732.28;;;4.31;100.00
60244;BME280;46106;51.468;5.814;2023-04-27T00:54:49;101730.50;;;4.30;100.00
60244;BME280;46106;51.468;5.814;2023-04-27T00:57:15;101725.84;;;4.34;100.00
60244;BME280;46106;51.468;5.814;2023-04-27T00:59:40;101739.63;;;4.28;100.00
60244;BME280;46106;51.468;5.814;2023-04-27T01:02:06;101739.03;;;4.19;100.00
60244;BME280;46106;51.468;5.814;2023-04-27T01:04:31;101737.78;;;4.30;100.00
60244;BME280;46106;51.468;5.814;2023-04-27T01:06:58;101736.66;;;4.12;100.00
60244;BME280;46106;51.468;5.814;2023-04-27T01:09:23;101730.59;;;4.05;100.00
60244;BME280;46106;51.468;5.814;2023-04-27T01:11:48;101737.41;;;4.15;100.00
60244;BME280;46106;51.468;5.814;2023-04-27T01:14:14;101734.69;;;4.15;100.00
60244;BME280;46106;51.468;5.814;2023-04-27T01:16:41;101736.88;;;4.05;100.00
60244;BME280;46106;51.468;5.814;2023-04-27T01:19:09;101733.50;;;3.99;100.00
60244;BME280;46106;51.468;5.814;2023-04-27T01:21:35;101733.72;;;3.93;100.00
60244;BME280;46106;51.468;5.814;2023-04-27T01:24:00;101733.69;;;3.94;100.00
60244;BME280;46106;51.468;5.814;2023-04-27T01:26:26;101736.34;;;3.96;100.00
60244;BME280;46106;51.468;5.814;2023-04-27T01:28:51;101727.34;;;3.95;100.00
60244;BME280;46106;51.468;5.814;2023-04-27T01:31:16;101738.44;;;3.88;100.00
60244;BME280;46106;51.468;5.814;2023-04-27T01:33:42;101739.03;;;3.96;100.00
60244;BME280;46106;51.468;5.814;2023-04-27T01:36:08;101739.06;;;3.71;100.00
60244;BME280;46106;51.468;5.814;2023-04-27T01:38:34;101732.09;;;3.63;100.00
60244;BME280;46106;51.468;5.814;2023-04-27T01:41:04;101734.53;;;3.71;100.00
60244;BME280;46106;51.468;5.814;2023-04-27T01:43:30;101742.53;;;3.74;100.00
60244;BME280;46106;51.468;5.814;2023-04-27T01:46:07;101728.41;;;3.66;100.00
60244;BME280;46106;51.468;5.814;2023-04-27T01:48:34;101733.47;;;3.75;100.00
60244;BME280;46106;51.468;5.814;2023-04-27T01:51:03;101719.78;;;3.55;100.00
60244;BME280;46106;51.468;5.814;2023-04-27T01:53:29;101728.66;;;3.58;100.00
60244;BME280;46106;51.468;5.814;2023-04-27T01:55:55;101721.53;;;3.56;100.00
60244;BME280;46106;51.468;5.814;2023-04-27T01:58:21;101730.38;;;3.61;100.00
60244;BME280;46106;51.468;5.814;2023-04-27T02:00:46;101725.19;;;3.55;100.00
60244;BME280;46106;51.468;5.814;2023-04-27T02:03:12;101728.97;;;3.49;100.00
60244;BME280;46106;51.468;5.814;2023-04-27T02:05:37;101732.59;;;3.49;100.00
60244;BME280;46106;51.468;5.814;2023-04-27T02:08:03;101729.09;;;3.46;100.00
60244;BME280;46106;51.468;5.814;2023-04-27T02:10:28;101729.31;;;3.40;100.00
60244;BME280;46106;51.468;5.814;2023-04-27T02:12:54;101728.16;;;3.47;100.00
60244;BME280;46106;51.468;5.814;2023-04-27T02:15:19;101730.25;;;3.39;100.00
60244;BME280;46106;51.468;5.814;2023-04-27T02:17:45;101728.31;;;3.42;100.00
60244;BME280;46106;51.468;5.814;2023-04-27T02:20:15;101728.66;;;3.33;100.00
60244;BME280;46106;51.468;5.814;2023-04-27T02:22:41;101720.63;;;3.30;100.00
60244;BME280;46106;51.468;5.814;2023-04-27T02:25:10;101718.34;;;3.18;100.00
60244;BME280;46106;51.468;5.814;2023-04-27T02:27:36;101712.78;;;3.22;100.00
60244;BME280;46106;51.468;5.814;2023-04-27T02:30:07;101725.63;;;3.16;100.00
60244;BME280;46106;51.468;5.814;2023-04-27T02:32:33;101721.34;;;3.10;100.00
60244;BME280;46106;51.468;5.814;2023-04-27T02:34:58;101721.38;;;3.08;100.00
60244;BME280;46106;51.468;5.814;2023-04-27T02:37:24;101711.75;;;3.00;100.00
60244;BME280;46106;51.468;5.814;2023-04-27T02:39:50;101698.59;;;2.89;100.00
60244;BME280;46106;51.468;5.814;2023-04-27T02:42:15;101694.00;;;2.91;100.00
60244;BME280;46106;51.468;5.814;2023-04-27T02:44:41;101706.44;;;2.97;100.00
60244;BME280;46106;51.468;5.814;2023-04-27T02:47:06;101704.47;;;3.02;100.00
60244;BME280;46106;51.468;5.814;2023-04-27T02:49:32;101703.72;;;2.97;100.00
60244;BME280;46106;51.468;5.814;2023-04-27T02:51:57;101694.31;;;2.82;100.00
60244;BME280;46106;51.468;5.814;2023-04-27T02:54:23;101702.47;;;2.80;100.00
60244;BME280;46106;51.468;5.814;2023-04-27T02:56:48;101704.06;;;2.87;100.00
60244;BME280;46106;51.468;5.814;2023-04-27T02:59:13;101695.06;;;2.85;100.00
60244;BME280;46106;51.468;5.814;2023-04-27T03:01:39;101706.38;;;2.98;100.00
60244;BME280;46106;51.468;5.814;2023-04-27T03:04:04;101712.50;;;3.03;100.00
60244;BME280;46106;51.468;5.814;2023-04-27T03:06:30;101716.94;;;3.06;100.00
60244;BME280;46106;51.468;5.814;2023-04-27T03:08:55;101709.75;;;3.05;100.00
60244;BME280;46106;51.468;5.814;2023-04-27T03:11:21;101708.06;;;3.02;100.00
60244;BME280;46106;51.468;5.814;2023-04-27T03:13:46;101708.06;;;3.02;100.00
60244;BME280;46106;51.468;5.814;2023-04-27T03:16:12;101707.91;;;3.07;100.00
60244;BME280;46106;51.468;5.814;2023-04-27T03:18:38;101712.38;;;3.08;100.00
60244;BME280;46106;51.468;5.814;2023-04-27T03:21:08;101714.53;;;2.97;100.00
60244;BME280;46106;51.468;5.814;2023-04-27T03:23:34;101710.88;;;2.99;100.00
60244;BME280;46106;51.468;5.814;2023-04-27T03:26:06;101707.53;;;2.91;100.00
60244;BME280;46106;51.468;5.814;2023-04-27T03:28:32;101706.03;;;2.82;100.00
60244;BME280;46106;51.468;5.814;2023-04-27T03:30:58;101698.44;;;2.65;100.00
60244;BME280;46106;51.468;5.814;2023-04-27T03:33:24;101710.22;;;2.64;100.00
60244;BME280;46106;51.468;5.814;2023-04-27T03:35:55;101711.97;;;2.65;100.00
60244;BME280;46106;51.468;5.814;2023-04-27T03:38:21;101712.66;;;2.72;100.00
60244;BME280;46106;51.468;5.814;2023-04-27T03:40:46;101710.44;;;2.85;100.00
60244;BME280;46106;51.468;5.814;2023-04-27T03:43:12;101722.97;;;2.87;100.00
60244;BME280;46106;51.468;5.814;2023-04-27T03:45:37;101717.81;;;2.80;100.00
60244;BME280;46106;51.468;5.814;2023-04-27T03:48:03;101717.88;;;2.78;100.00
60244;BME280;46106;51.468;5.814;2023-04-27T03:50:29;101721.13;;;2.61;100.00
60244;BME280;46106;51.468;5.814;2023-04-27T03:52:54;101718.59;;;2.55;100.00
60244;BME280;46106;51.468;5.814;2023-04-27T03:55:20;101722.81;;;2.64;100.00
60244;BME280;46106;51.468;5.814;2023-04-27T03:57:45;101717.09;;;2.74;100.00
60244;BME280;46106;51.468;5.814;2023-04-27T04:00:13;101726.34;;;2.67;100.00
60244;BME280;46106;51.468;5.814;2023-04-27T04:02:40;101720.94;;;2.67;100.00
60244;BME280;46106;51.468;5.814;2023-04-27T04:05:06;101716.16;;;2.75;100.00
60244;BME280;46106;51.468;5.814;2023-04-27T04:07:33;101711.09;;;2.65;100.00
60244;BME280;46106;51.468;5.814;2023-04-27T04:09:58;101729.78;;;2.72;100.00
60244;BME280;46106;51.468;5.814;2023-04-27T04:12:24;101723.72;;;2.64;100.00
60244;BME280;46106;51.468;5.814;2023-04-27T04:14:50;101731.75;;;2.67;100.00
60244;BME280;46106;51.468;5.814;2023-04-27T04:17:16;101728.97;;;2.69;100.00
60244;BME280;46106;51.468;5.814;2023-04-27T04:19:41;101726.22;;;2.70;100.00
60244;BME280;46106;51.468;5.814;2023-04-27T04:22:10;101721.69;;;2.43;100.00
60244;BME280;46106;51.468;5.814;2023-04-27T04:24:36;101726.34;;;2.37;100.00
60244;BME280;46106;51.468;5.814;2023-04-27T04:27:02;101731.63;;;2.42;100.00
60244;BME280;46106;51.468;5.814;2023-04-27T04:29:27;101739.72;;;2.42;100.00
60244;BME280;46106;51.468;5.814;2023-04-27T04:31:54;101744.03;;;2.49;100.00
60244;BME280;46106;51.468;5.814;2023-04-27T04:34:20;101744.84;;;2.51;100.00
60244;BME280;46106;51.468;5.814;2023-04-27T04:36:46;101745.59;;;2.56;100.00
60244;BME280;46106;51.468;5.814;2023-04-27T04:39:11;101755.53;;;2.56;100.00
60244;BME280;46106;51.468;5.814;2023-04-27T04:41:37;101759.47;;;2.74;100.00
60244;BME280;46106;51.468;5.814;2023-04-27T04:44:03;101765.47;;;2.84;100.00
60244;BME280;46106;51.468;5.814;2023-04-27T04:46:29;101761.72;;;2.88;100.00
60244;BME280;46106;51.468;5.814;2023-04-27T04:48:55;101760.63;;;2.93;100.00
60244;BME280;46106;51.468;5.814;2023-04-27T04:51:20;101756.94;;;2.96;100.00
60244;BME280;46106;51.468;5.814;2023-04-27T04:53:46;101764.03;;;3.00;100.00
60244;BME280;46106;51.468;5.814;2023-04-27T04:56:12;101766.75;;;3.00;100.00
60244;BME280;46106;51.468;5.814;2023-04-27T04:58:38;101761.44;;;2.97;100.00
60244;BME280;46106;51.468;5.814;2023-04-27T05:01:04;101770.53;;;2.94;100.00
60244;BME280;46106;51.468;5.814;2023-04-27T05:03:29;101767.81;;;2.94;100.00
60244;BME280;46106;51.468;5.814;2023-04-27T05:05:55;101775.50;;;3.08;100.00
60244;BME280;46106;51.468;5.814;2023-04-27T05:08:20;101768.25;;;3.09;100.00
60244;BME280;46106;51.468;5.814;2023-04-27T05:10:52;101775.50;;;3.08;100.00
60244;BME280;46106;51.468;5.814;2023-04-27T05:13:19;101766.41;;;3.09;100.00
60244;BME280;46106;51.468;5.814;2023-04-27T05:15:45;101779.03;;;3.10;100.00
60244;BME280;46106;51.468;5.814;2023-04-27T05:18:10;101782.66;;;3.09;100.00
60244;BME280;46106;51.468;5.814;2023-04-27T05:20:39;101781.78;;;3.09;100.00
60244;BME280;46106;51.468;5.814;2023-04-27T05:23:04;101782.22;;;3.23;100.00
60244;BME280;46106;51.468;5.814;2023-04-27T05:25:34;101774.56;;;3.36;100.00
60244;BME280;46106;51.468;5.814;2023-04-27T05:28:06;101774.94;;;3.77;100.00
60244;BME280;46106;51.468;5.814;2023-04-27T05:30:31;101777.63;;;4.02;100.00
60244;BME280;46106;51.468;5.814;2023-04-27T05:32:57;101774.53;;;4.13;100.00
60244;BME280;46106;51.468;5.814;2023-04-27T05:35:22;101779.91;;;4.38;100.00
60244;BME280;46106;51.468;5.814;2023-04-27T05:37:48;101782.97;;;4.53;100.00
60244;BME280;46106;51.468;5.814;2023-04-27T05:40:14;101785.41;;;4.83;100.00
60244;BME280;46106;51.468;5.814;2023-04-27T05:42:39;101785.34;;;5.06;100.00
60244;BME280;46106;51.468;5.814;2023-04-27T05:45:05;101779.19;;;5.25;100.00
60244;BME280;46106;51.468;5.814;2023-04-27T05:47:31;101789.75;;;5.53;100.00
60244;BME280;46106;51.468;5.814;2023-04-27T05:49:57;101795.44;;;5.47;100.00
60244;BME280;46106;51.468;5.814;2023-04-27T05:52:22;101788.25;;;5.66;100.00
60244;BME280;46106;51.468;5.814;2023-04-27T05:54:53;101795.31;;;5.70;100.00
60244;BME280;46106;51.468;5.814;2023-04-27T05:57:19;101792.38;;;5.75;100.00
60244;BME280;46106;51.468;5.814;2023-04-27T05:59:44;101795.03;;;5.99;100.00
60244;BME280;46106;51.468;5.814;2023-04-27T06:02:10;101799.97;;;6.10;100.00
60244;BME280;46106;51.468;5.814;2023-04-27T06:04:36;101797.38;;;6.27;100.00
60244;BME280;46106;51.468;5.814;2023-04-27T06:07:06;101790.63;;;6.36;100.00
60244;BME280;46106;51.468;5.814;2023-04-27T06:09:31;101798.06;;;6.70;100.00
60244;BME280;46106;51.468;5.814;2023-04-27T06:11:57;101802.97;;;7.00;100.00
60244;BME280;46106;51.468;5.814;2023-04-27T06:14:23;101804.09;;;7.15;100.00
60244;BME280;46106;51.468;5.814;2023-04-27T06:16:50;101801.66;;;6.90;100.00
60244;BME280;46106;51.468;5.814;2023-04-27T06:19:16;101793.22;;;6.96;100.00
60244;BME280;46106;51.468;5.814;2023-04-27T06:21:41;101791.63;;;7.46;100.00
60244;BME280;46106;51.468;5.814;2023-04-27T06:24:09;101803.84;;;7.56;100.00
60244;BME280;46106;51.468;5.814;2023-04-27T06:26:35;101795.13;;;7.84;100.00
60244;BME280;46106;51.468;5.814;2023-04-27T06:29:00;101789.97;;;7.78;100.00
60244;BME280;46106;51.468;5.814;2023-04-27T06:31:28;101794.53;;;8.13;100.00
60244;BME280;46106;51.468;5.814;2023-04-27T06:33:53;101796.50;;;8.44;100.00
60244;BME280;46106;51.468;5.814;2023-04-27T06:36:19;101792.66;;;8.64;100.00
60244;BME280;46106;51.468;5.814;2023-04-27T06:38:45;101803.75;;;9.41;100.00
60244;BME280;46106;51.468;5.814;2023-04-27T06:41:14;101798.03;;;9.29;100.00
60244;BME280;46106;51.468;5.814;2023-04-27T06:43:39;101808.19;;;9.27;100.00
60244;BME280;46106;51.468;5.814;2023-04-27T06:46:04;101798.69;;;9.18;100.00
60244;BME280;46106;51.468;5.814;2023-04-27T06:48:30;101794.69;;;9.40;100.00
60244;BME280;46106;51.468;5.814;2023-04-27T06:50:55;101795.59;;;9.71;100.00
60244;BME280;46106;51.468;5.814;2023-04-27T06:53:21;101790.16;;;9.85;100.00
60244;BME280;46106;51.468;5.814;2023-04-27T06:55:46;101800.66;;;9.77;100.00
60244;BME280;46106;51.468;5.814;2023-04-27T06:58:12;101787.75;;;10.09;100.00
60244;BME280;46106;51.468;5.814;2023-04-27T07:00:37;101784.69;;;10.44;100.00
60244;BME280;46106;51.468;5.814;2023-04-27T07:03:03;101786.06;;;10.37;100.00
60244;BME280;46106;51.468;5.814;2023-04-27T07:05:28;101789.50;;;10.70;96.52
60244;BME280;46106;51.468;5.814;2023-04-27T07:07:54;101797.75;;;9.66;100.00
60244;BME280;46106;51.468;5.814;2023-04-27T07:10:19;101788.53;;;9.97;100.00
60244;BME280;46106;51.468;5.814;2023-04-27T07:12:45;101787.75;;;10.09;92.27
60244;BME280;46106;51.468;5.814;2023-04-27T07:15:14;101783.66;;;10.02;93.49
60244;BME280;46106;51.468;5.814;2023-04-27T07:17:39;101796.34;;;10.34;92.74
60244;BME280;46106;51.468;5.814;2023-04-27T07:20:06;101786.31;;;10.90;89.31
60244;BME280;46106;51.468;5.814;2023-04-27T07:22:32;101798.75;;;10.96;85.55
60244;BME280;46106;51.468;5.814;2023-04-27T07:24:58;101804.31;;;11.09;83.87
60244;BME280;46106;51.468;5.814;2023-04-27T07:27:23;101795.88;;;11.12;85.50
60244;BME280;46106;51.468;5.814;2023-04-27T07:29:51;101790.69;;;11.62;80.70
60244;BME280;46106;51.468;5.814;2023-04-27T07:32:16;101795.88;;;11.66;84.69
60244;BME280;46106;51.468;5.814;2023-04-27T07:34:42;101787.78;;;11.77;82.45
60244;BME280;46106;51.468;5.814;2023-04-27T07:37:08;101783.91;;;12.20;79.94
60244;BME280;46106;51.468;5.814;2023-04-27T07:39:33;101786.53;;;11.69;83.92
60244;BME280;46106;51.468;5.814;2023-04-27T07:41:59;101785.94;;;11.91;81.08
60244;BME280;46106;51.468;5.814;2023-04-27T07:44:24;101782.44;;;11.89;80.42
60244;BME280;46106;51.468;5.814;2023-04-27T07:46:50;101788.97;;;11.73;76.56
60244;BME280;46106;51.468;5.814;2023-04-27T07:49:19;101776.78;;;12.18;74.92
60244;BME280;46106;51.468;5.814;2023-04-27T07:51:45;101788.88;;;11.48;75.34
60244;BME280;46106;51.468;5.814;2023-04-27T07:54:14;101783.91;;;11.67;78.01
60244;BME280;46106;51.468;5.814;2023-04-27T07:56:41;101775.25;;;12.13;75.28
60244;BME280;46106;51.468;5.814;2023-04-27T07:59:06;101780.16;;;12.21;74.63
60244;BME280;46106;51.468;5.814;2023-04-27T08:01:31;101775.00;;;12.42;68.64
60244;BME280;46106;51.468;5.814;2023-04-27T08:03:57;101772.03;;;12.32;69.60
60244;BME280;46106;51.468;5.814;2023-04-27T08:06:23;101774.56;;;12.10;70.40
60244;BME280;46106;51.468;5.814;2023-04-27T08:08:48;101767.38;;;12.72;67.28
60244;BME280;46106;51.468;5.814;2023-04-27T08:11:13;101761.06;;;12.95;65.26
60244;BME280;46106;51.468;5.814;2023-04-27T08:13:39;101771.69;;;12.76;63.89
60244;BME280;46106;51.468;5.814;2023-04-27T08:16:05;101771.50;;;13.27;65.34
60244;BME280;46106;51.468;5.814;2023-04-27T08:18:31;101769.69;;;13.15;61.80
60244;BME280;46106;51.468;5.814;2023-04-27T08:20:57;101777.25;;;13.24;61.12
60244;BME280;46106;51.468;5.814;2023-04-27T08:23:25;101768.16;;;13.11;59.82
60244;BME280;46106;51.468;5.814;2023-04-27T08:25:51;101777.63;;;12.57;62.57
60244;BME280;46106;51.468;5.814;2023-04-27T08:28:17;101778.31;;;13.34;61.01
60244;BME280;46106;51.468;5.814;2023-04-27T08:30:42;101785.88;;;13.44;54.09
60244;BME280;46106;51.468;5.814;2023-04-27T08:33:09;101779.84;;;13.01;59.90
60244;BME280;46106;51.468;5.814;2023-04-27T08:35:35;101783.44;;;13.52;55.96
60244;BME280;46106;51.468;5.814;2023-04-27T08:38:00;101767.75;;;13.04;57.56
60244;BME280;46106;51.468;5.814;2023-04-27T08:40:26;101776.38;;;13.36;58.39
60244;BME280;46106;51.468;5.814;2023-04-27T08:42:56;101755.00;;;13.75;55.99
60244;BME280;46106;51.468;5.814;2023-04-27T08:45:23;101771.59;;;13.98;55.66
60244;BME280;46106;51.468;5.814;2023-04-27T08:47:49;101762.34;;;14.10;54.38
60244;BME280;46106;51.468;5.814;2023-04-27T08:50:15;101753.00;;;13.77;56.96
60244;BME280;46106;51.468;5.814;2023-04-27T08:52:48;101757.28;;;13.57;55.25
60244;BME280;46106;51.468;5.814;2023-04-27T08:55:13;101750.31;;;13.16;57.79
60244;BME280;46106;51.468;5.814;2023-04-27T08:57:39;101739.41;;;13.87;54.67
60244;BME280;46106;51.468;5.814;2023-04-27T09:00:05;101744.38;;;13.71;52.15
60244;BME280;46106;51.468;5.814;2023-04-27T09:02:45;101751.81;;;14.04;52.21
60244;BME280;46106;51.468;5.814;2023-04-27T09:05:18;101742.72;;;14.49;53.19
60244;BME280;46106;51.468;5.814;2023-04-27T09:08:03;101742.31;;;14.08;51.93
60244;BME280;46106;51.468;5.814;2023-04-27T09:10:45;101747.81;;;14.08;51.35
60244;BME280;46106;51.468;5.814;2023-04-27T09:13:12;101745.84;;;14.44;50.53
60244;BME280;46106;51.468;5.814;2023-04-27T09:15:50;101754.25;;;14.88;48.97
60244;BME280;46106;51.468;5.814;2023-04-27T09:18:21;101748.75;;;14.31;49.80
60244;BME280;46106;51.468;5.814;2023-04-27T09:20:48;101764.06;;;14.81;48.98
60244;BME280;46106;51.468;5.814;2023-04-27T09:23:30;101759.16;;;14.62;48.98
60244;BME280;46106;51.468;5.814;2023-04-27T09:25:57;101753.31;;;13.97;48.35
60244;BME280;46106;51.468;5.814;2023-04-27T09:28:27;101749.13;;;14.27;46.40
60244;BME280;46106;51.468;5.814;2023-04-27T09:30:57;101744.66;;;14.60;47.40
60244;BME280;46106;51.468;5.814;2023-04-27T09:33:24;101745.50;;;14.83;46.18
60244;BME280;46106;51.468;5.814;2023-04-27T09:35:51;101740.59;;;14.19;47.85
60244;BME280;46106;51.468;5.814;2023-04-27T09:38:20;101751.09;;;14.36;46.36
60244;BME280;46106;51.468;5.814;2023-04-27T09:40:46;101744.56;;;14.03;46.62
60244;BME280;46106;51.468;5.814;2023-04-27T09:43:12;101740.38;;;13.51;49.94
60244;BME280;46106;51.468;5.814;2023-04-27T09:45:38;101739.56;;;14.08;46.78
60244;BME280;46106;51.468;5.814;2023-04-27T09:48:05;101719.94;;;14.47;48.31
60244;BME280;46106;51.468;5.814;2023-04-27T09:50:35;101728.78;;;15.07;45.11
60244;BME280;46106;51.468;5.814;2023-04-27T09:53:02;101709.03;;;14.57;46.66
60244;BME280;46106;51.468;5.814;2023-04-27T09:55:39;101715.53;;;13.99;48.02
60244;BME280;46106;51.468;5.814;2023-04-27T10:01:25;101725.63;;;13.98;46.05
60244;BME280;46106;51.468;5.814;2023-04-27T10:04:04;101719.38;;;13.96;45.88
60244;BME280;46106;51.468;5.814;2023-04-27T10:06:50;101725.56;;;14.23;46.39
60244;BME280;46106;51.468;5.814;2023-04-27T10:09:20;101718.00;;;13.91;46.70
60244;BME280;46106;51.468;5.814;2023-04-27T10:11:48;101719.81;;;14.37;44.91
60244;BME280;46106;51.468;5.814;2023-04-27T10:14:18;101719.56;;;14.51;47.81
60244;BME280;46106;51.468;5.814;2023-04-27T10:17:09;101713.84;;;15.10;45.59
60244;BME280;46106;51.468;5.814;2023-04-27T10:19:34;101712.84;;;15.11;45.04
60244;BME280;46106;51.468;5.814;2023-04-27T10:22:00;101704.44;;;15.12;44.79
60244;BME280;46106;51.468;5.814;2023-04-27T10:24:39;101713.56;;;14.58;45.75
60244;BME280;46106;51.468;5.814;2023-04-27T10:27:09;101711.16;;;14.76;43.98
60244;BME280;46106;51.468;5.814;2023-04-27T10:29:43;101707.28;;;14.78;41.87
60244;BME280;46106;51.468;5.814;2023-04-27T10:32:23;101709.78;;;14.59;43.55
60244;BME280;46106;51.468;5.814;2023-04-27T10:34:50;101712.41;;;14.26;44.19
60244;BME280;46106;51.468;5.814;2023-04-27T10:37:17;101711.88;;;14.10;42.84
60244;BME280;46106;51.468;5.814;2023-04-27T10:39:49;101719.34;;;14.66;42.39
60244;BME280;46106;51.468;5.814;2023-04-27T10:42:28;101717.69;;;14.63;44.06
60244;BME280;46106;51.468;5.814;2023-04-27T10:44:56;101717.97;;;15.15;41.15
60244;BME280;46106;51.468;5.814;2023-04-27T10:47:21;101709.47;;;15.07;43.23
60244;BME280;46106;51.468;5.814;2023-04-27T10:49:51;101716.78;;;14.85;46.15
60244;BME280;46106;51.468;5.814;2023-04-27T10:52:17;101709.66;;;14.72;42.25
60244;BME280;46106;51.468;5.814;2023-04-27T10:54:45;101712.16;;;14.52;43.09
60244;BME280;46106;51.468;5.814;2023-04-27T10:57:14;101703.41;;;14.24;42.80
60244;BME280;46106;51.468;5.814;2023-04-27T10:59:52;101692.97;;;14.96;45.04
60244;BME280;46106;51.468;5.814;2023-04-27T11:02:27;101702.78;;;15.53;42.42
60244;BME280;46106;51.468;5.814;2023-04-27T11:04:53;101698.09;;;15.00;42.65
60244;BME280;46106;51.468;5.814;2023-04-27T11:07:26;101698.25;;;14.87;43.94
60244;BME280;46106;51.468;5.814;2023-04-27T11:09:52;101687.84;;;15.23;42.92
60244;BME280;46106;51.468;5.814;2023-04-27T11:12:18;101687.34;;;15.51;43.22
60244;BME280;46106;51.468;5.814;2023-04-27T11:14:43;101672.50;;;15.31;44.49
60244;BME280;46106;51.468;5.814;2023-04-27T11:17:09;101685.97;;;14.80;43.35
60244;BME280;46106;51.468;5.814;2023-04-27T11:19:47;101675.75;;;15.03;41.73
60244;BME280;46106;51.468;5.814;2023-04-27T11:22:14;101674.75;;;15.04;43.03
60244;BME280;46106;51.468;5.814;2023-04-27T11:24:47;101671.44;;;14.56;42.90
60244;BME280;46106;51.468;5.814;2023-04-27T11:27:13;101661.16;;;14.69;45.48
60244;BME280;46106;51.468;5.814;2023-04-27T11:29:39;101661.91;;;15.15;42.74
60244;BME280;46106;51.468;5.814;2023-04-27T11:32:04;101668.91;;;15.51;38.69
60244;BME280;46106;51.468;5.814;2023-04-27T11:34:30;101661.63;;;14.85;39.54
60244;BME280;46106;51.468;5.814;2023-04-27T11:37:03;101669.97;;;14.74;41.69
60244;BME280;46106;51.468;5.814;2023-04-27T11:39:37;101656.06;;;14.53;43.49
60244;BME280;46106;51.468;5.814;2023-04-27T11:42:19;101663.13;;;14.89;41.70
60244;BME280;46106;51.468;5.814;2023-04-27T11:44:58;101662.28;;;14.89;40.39
60244;BME280;46106;51.468;5.814;2023-04-27T11:47:26;101652.19;;;14.99;41.28
60244;BME280;46106;51.468;5.814;2023-04-27T11:49:55;101651.84;;;14.93;40.60
60244;BME280;46106;51.468;5.814;2023-04-27T11:52:22;101644.78;;;14.56;41.99
60244;BME280;46106;51.468;5.814;2023-04-27T11:54:49;101650.53;;;14.53;43.45
60244;BME280;46106;51.468;5.814;2023-04-27T11:57:15;101641.13;;;14.67;41.75
60244;BME280;46106;51.468;5.814;2023-04-27T11:59:40;101642.03;;;14.33;43.01
60244;BME280;46106;51.468;5.814;2023-04-27T12:02:09;101648.06;;;14.61;40.68
60244;BME280;46106;51.468;5.814;2023-04-27T12:04:35;101650.44;;;14.32;41.19
60244;BME280;46106;51.468;5.814;2023-04-27T12:07:01;101643.78;;;14.34;42.40
60244;BME280;46106;51.468;5.814;2023-04-27T12:09:27;101653.69;;;14.26;41.57
60244;BME280;46106;51.468;5.814;2023-04-27T12:11:53;101641.56;;;14.06;40.55
60244;BME280;46106;51.468;5.814;2023-04-27T12:14:19;101641.56;;;14.17;42.02
60244;BME280;46106;51.468;5.814;2023-04-27T12:16:44;101645.28;;;14.61;42.73
60244;BME280;46106;51.468;5.814;2023-04-27T12:19:10;101635.63;;;14.44;41.81
60244;BME280;46106;51.468;5.814;2023-04-27T12:21:36;101631.28;;;14.42;40.21
60244;BME280;46106;51.468;5.814;2023-04-27T12:24:01;101623.75;;;14.44;40.80
60244;BME280;46106;51.468;5.814;2023-04-27T12:26:26;101627.53;;;14.31;40.56
60244;BME280;46106;51.468;5.814;2023-04-27T12:28:53;101636.91;;;14.29;42.81
60244;BME280;46106;51.468;5.814;2023-04-27T12:31:18;101628.03;;;14.37;41.21
60244;BME280;46106;51.468;5.814;2023-04-27T12:33:48;101627.38;;;14.44;43.00
60244;BME280;46106;51.468;5.814;2023-04-27T12:36:15;101616.78;;;14.17;42.13
60244;BME280;46106;51.468;5.814;2023-04-27T12:38:41;101619.66;;;14.15;42.89
60244;BME280;46106;51.468;5.814;2023-04-27T12:41:07;101611.00;;;13.97;39.72
60244;BME280;46106;51.468;5.814;2023-04-27T12:43:32;101616.88;;;14.15;41.07
60244;BME280;46106;51.468;5.814;2023-04-27T12:46:00;101606.34;;;14.32;41.61
60244;BME280;46106;51.468;5.814;2023-04-27T12:48:26;101606.16;;;14.67;41.77
60244;BME280;46106;51.468;5.814;2023-04-27T12:50:51;101610.88;;;14.88;42.82
60244;BME280;46106;51.468;5.814;2023-04-27T12:53:17;101613.06;;;14.73;42.05